sensor_id;sensor_type;location;lat;lon;timestamp;temperature;humidity
8105;DHT22;4095;48.942;9.104;2023-01-25T00:02:20;6.40;99.90
8105;DHT22;4095;48.942;9.104;2023-01-25T00:04:46;6.40;99.80
8105;DHT22;4095;48.942;9.104;2023-01-25T00:07:11;6.40;99.80
8105;DHT22;4095;48.942;9.104;2023-01-25T00:09:37;6.40;99.80
8105;DHT22;4095;48.942;9.104;2023-01-25T00:12:03;6.40;99.90
8105;DHT22;4095;48.942;9.104;2023-01-25T00:14:28;6.40;99.90
8105;DHT22;4095;48.942;9.104;2023-01-25T00:16:54;6.40;99.90
8105;DHT22;4095;48.942;9.104;2023-01-25T00:19:20;6.40;99.80
8105;DHT22;4095;48.942;9.104;2023-01-25T00:21:45;6.30;99.80
8105;DHT22;4095;48.942;9.104;2023-01-25T00:24:11;6.30;99.90
8105;DHT22;4095;48.942;9.104;2023-01-25T00:26:38;6.40;99.90
8105;DHT22;4095;48.942;9.104;2023-01-25T00:29:05;6.30;99.90
8105;DHT22;4095;48.942;9.104;2023-01-25T00:31:37;6.40;99.90
8105;DHT22;4095;48.942;9.104;2023-01-25T00:39:57;6.30;99.90
8105;DHT22;4095;48.942;9.104;2023-01-25T00:42:22;6.30;99.90
8105;DHT22;4095;48.942;9.104;2023-01-25T00:44:48;6.30;99.90
8105;DHT22;4095;48.942;9.104;2023-01-25T00:47:14;6.30;99.90
8105;DHT22;4095;48.942;9.104;2023-01-25T00:49:41;6.30;99.90
8105;DHT22;4095;48.942;9.104;2023-01-25T00:52:08;6.30;99.90
8105;DHT22;4095;48.942;9.104;2023-01-25T00:54:34;6.30;99.90
8105;DHT22;4095;48.942;9.104;2023-01-25T00:56:59;6.30;99.90
8105;DHT22;4095;48.942;9.104;2023-01-25T00:59:25;6.30;99.90
8105;DHT22;4095;48.942;9.104;2023-01-25T01:01:51;6.30;99.90
8105;DHT22;4095;48.942;9.104;2023-01-25T01:04:18;6.30;99.90
8105;DHT22;4095;48.942;9.104;2023-01-25T01:06:44;6.30;99.90
8105;DHT22;4095;48.942;9.104;2023-01-25T01:09:14;6.40;99.90
8105;DHT22;4095;48.942;9.104;2023-01-25T01:11:40;6.30;99.90
8105;DHT22;4095;48.942;9.104;2023-01-25T01:14:06;6.30;99.80
8105;DHT22;4095;48.942;9.104;2023-01-25T01:16:32;6.30;99.90
8105;DHT22;4095;48.942;9.104;2023-01-25T01:18:58;6.30;99.90
8105;DHT22;4095;48.942;9.104;2023-01-25T01:21:23;6.30;99.90
8105;DHT22;4095;48.942;9.104;2023-01-25T01:23:49;6.30;99.80
8105;DHT22;4095;48.942;9.104;2023-01-25T01:26:16;6.30;99.90
8105;DHT22;4095;48.942;9.104;2023-01-25T01:28:45;6.20;99.90
8105;DHT22;4095;48.942;9.104;2023-01-25T01:31:14;6.20;99.90
8105;DHT22;4095;48.942;9.104;2023-01-25T01:33:40;6.20;99.90
8105;DHT22;4095;48.942;9.104;2023-01-25T01:36:07;6.20;99.90
8105;DHT22;4095;48.942;9.104;2023-01-25T01:38:33;6.20;99.90
8105;DHT22;4095;48.942;9.104;2023-01-25T01:40:59;6.30;99.90
8105;DHT22;4095;48.942;9.104;2023-01-25T01:43:24;6.20;99.90
8105;DHT22;4095;48.942;9.104;2023-01-25T01:45:53;6.30;99.90
8105;DHT22;4095;48.942;9.104;2023-01-25T01:48:29;6.30;99.90
8105;DHT22;4095;48.942;9.104;2023-01-25T01:53:44;6.30;99.90
8105;DHT22;4095;48.942;9.104;2023-01-25T01:56:14;6.30;99.90
8105;DHT22;4095;48.942;9.104;2023-01-25T01:58:42;6.30;99.90
8105;DHT22;4095;48.942;9.104;2023-01-25T02:01:08;6.20;99.90
8105;DHT22;4095;48.942;9.104;2023-01-25T02:03:34;6.20;99.90
8105;DHT22;4095;48.942;9.104;2023-01-25T02:06:15;6.20;99.90
8105;DHT22;4095;48.942;9.104;2023-01-25T02:08:44;6.20;99.90
8105;DHT22;4095;48.942;9.104;2023-01-25T02:11:11;6.30;99.90
8105;DHT22;4095;48.942;9.104;2023-01-25T02:13:37;6.20;99.90
8105;DHT22;4095;48.942;9.104;2023-01-25T02:16:03;6.30;99.90
8105;DHT22;4095;48.942;9.104;2023-01-25T02:18:29;6.30;99.90
8105;DHT22;4095;48.942;9.104;2023-01-25T02:20:57;6.30;99.90
8105;DHT22;4095;48.942;9.104;2023-01-25T02:23:28;6.30;99.90
8105;DHT22;4095;48.942;9.104;2023-01-25T02:25:56;6.20;99.90
8105;DHT22;4095;48.942;9.104;2023-01-25T02:28:59;6.20;99.90
8105;DHT22;4095;48.942;9.104;2023-01-25T02:31:26;6.20;99.90
8105;DHT22;4095;48.942;9.104;2023-01-25T02:33:52;6.20;99.90
8105;DHT22;4095;48.942;9.104;2023-01-25T02:36:24;6.20;99.90
8105;DHT22;4095;48.942;9.104;2023-01-25T02:38:56;6.20;99.90
8105;DHT22;4095;48.942;9.104;2023-01-25T02:43:55;6.20;99.90
8105;DHT22;4095;48.942;9.104;2023-01-25T02:46:29;6.20;99.90
8105;DHT22;4095;48.942;9.104;2023-01-25T02:48:57;6.20;99.90
8105;DHT22;4095;48.942;9.104;2023-01-25T02:51:25;6.20;99.90
8105;DHT22;4095;48.942;9.104;2023-01-25T02:53:51;6.20;99.90
8105;DHT22;4095;48.942;9.104;2023-01-25T02:56:18;6.10;99.90
8105;DHT22;4095;48.942;9.104;2023-01-25T02:58:44;6.10;99.90
8105;DHT22;4095;48.942;9.104;2023-01-25T03:01:10;6.10;99.90
8105;DHT22;4095;48.942;9.104;2023-01-25T03:03:36;6.10;99.90
8105;DHT22;4095;48.942;9.104;2023-01-25T03:06:01;6.20;99.90
8105;DHT22;4095;48.942;9.104;2023-01-25T03:08:27;6.10;99.90
8105;DHT22;4095;48.942;9.104;2023-01-25T03:10:57;6.10;99.90
8105;DHT22;4095;48.942;9.104;2023-01-25T03:13:23;6.10;99.90
8105;DHT22;4095;48.942;9.104;2023-01-25T03:15:49;6.10;99.90
8105;DHT22;4095;48.942;9.104;2023-01-25T03:18:14;6.10;99.90
8105;DHT22;4095;48.942;9.104;2023-01-25T03:20:40;6.10;99.90
8105;DHT22;4095;48.942;9.104;2023-01-25T03:23:05;6.10;99.90
8105;DHT22;4095;48.942;9.104;2023-01-25T03:25:31;6.20;99.90
8105;DHT22;4095;48.942;9.104;2023-01-25T03:27:56;6.20;99.90
8105;DHT22;4095;48.942;9.104;2023-01-25T03:30:22;6.10;99.90
8105;DHT22;4095;48.942;9.104;2023-01-25T03:32:47;6.10;99.90
8105;DHT22;4095;48.942;9.104;2023-01-25T03:35:14;6.10;99.90
8105;DHT22;4095;48.942;9.104;2023-01-25T03:37:40;6.10;99.90
8105;DHT22;4095;48.942;9.104;2023-01-25T03:40:06;6.00;99.90
8105;DHT22;4095;48.942;9.104;2023-01-25T03:42:32;6.10;99.90
8105;DHT22;4095;48.942;9.104;2023-01-25T03:44:57;6.10;99.90
8105;DHT22;4095;48.942;9.104;2023-01-25T03:47:23;6.10;99.90
8105;DHT22;4095;48.942;9.104;2023-01-25T03:49:48;6.10;99.90
8105;DHT22;4095;48.942;9.104;2023-01-25T03:52:14;6.10;99.90
8105;DHT22;4095;48.942;9.104;2023-01-25T03:54:39;6.10;99.90
8105;DHT22;4095;48.942;9.104;2023-01-25T03:57:05;6.10;99.90
8105;DHT22;4095;48.942;9.104;2023-01-25T03:59:30;6.10;99.90
8105;DHT22;4095;48.942;9.104;2023-01-25T04:01:56;6.20;99.90
8105;DHT22;4095;48.942;9.104;2023-01-25T04:04:21;6.20;99.90
8105;DHT22;4095;48.942;9.104;2023-01-25T04:06:47;6.20;99.90
8105;DHT22;4095;48.942;9.104;2023-01-25T04:09:12;6.10;99.90
8105;DHT22;4095;48.942;9.104;2023-01-25T04:11:39;6.20;99.90
8105;DHT22;4095;48.942;9.104;2023-01-25T04:14:05;6.10;99.90
8105;DHT22;4095;48.942;9.104;2023-01-25T04:16:30;6.10;99.90
8105;DHT22;4095;48.942;9.104;2023-01-25T04:18:56;6.10;99.90
8105;DHT22;4095;48.942;9.104;2023-01-25T04:21:21;6.10;99.90
8105;DHT22;4095;48.942;9.104;2023-01-25T04:23:47;6.10;99.90
8105;DHT22;4095;48.942;9.104;2023-01-25T04:26:13;6.10;99.90
8105;DHT22;4095;48.942;9.104;2023-01-25T04:28:39;6.10;99.90
8105;DHT22;4095;48.942;9.104;2023-01-25T04:31:05;6.10;99.90
8105;DHT22;4095;48.942;9.104;2023-01-25T04:33:31;6.10;99.90
8105;DHT22;4095;48.942;9.104;2023-01-25T04:35:57;6.10;99.90
8105;DHT22;4095;48.942;9.104;2023-01-25T04:38:23;6.10;99.90
8105;DHT22;4095;48.942;9.104;2023-01-25T04:40:49;6.10;99.90
8105;DHT22;4095;48.942;9.104;2023-01-25T04:43:16;6.20;99.90
8105;DHT22;4095;48.942;9.104;2023-01-25T04:45:42;6.20;99.90
8105;DHT22;4095;48.942;9.104;2023-01-25T04:48:09;6.20;99.90
8105;DHT22;4095;48.942;9.104;2023-01-25T04:50:39;6.20;99.90
8105;DHT22;4095;48.942;9.104;2023-01-25T04:53:05;6.20;99.90
8105;DHT22;4095;48.942;9.104;2023-01-25T04:55:31;6.10;99.90
8105;DHT22;4095;48.942;9.104;2023-01-25T04:57:58;6.20;99.90
8105;DHT22;4095;48.942;9.104;2023-01-25T05:00:24;6.20;99.90
8105;DHT22;4095;48.942;9.104;2023-01-25T05:02:49;6.10;99.90
8105;DHT22;4095;48.942;9.104;2023-01-25T05:05:15;6.10;99.90
8105;DHT22;4095;48.942;9.104;2023-01-25T05:07:40;6.20;99.90
8105;DHT22;4095;48.942;9.104;2023-01-25T05:10:07;6.20;99.90
8105;DHT22;4095;48.942;9.104;2023-01-25T05:12:33;6.20;99.90
8105;DHT22;4095;48.942;9.104;2023-01-25T05:14:58;6.20;99.90
8105;DHT22;4095;48.942;9.104;2023-01-25T05:17:24;6.20;99.90
8105;DHT22;4095;48.942;9.104;2023-01-25T05:19:49;6.20;99.90
8105;DHT22;4095;48.942;9.104;2023-01-25T05:22:17;6.10;99.90
8105;DHT22;4095;48.942;9.104;2023-01-25T05:24:45;6.20;99.90
8105;DHT22;4095;48.942;9.104;2023-01-25T05:27:13;6.20;99.90
8105;DHT22;4095;48.942;9.104;2023-01-25T05:29:40;6.20;99.90
8105;DHT22;4095;48.942;9.104;2023-01-25T05:32:09;6.20;99.90
8105;DHT22;4095;48.942;9.104;2023-01-25T05:34:35;6.20;99.90
8105;DHT22;4095;48.942;9.104;2023-01-25T05:37:01;6.20;99.90
8105;DHT22;4095;48.942;9.104;2023-01-25T05:39:27;6.20;99.90
8105;DHT22;4095;48.942;9.104;2023-01-25T05:41:53;6.20;99.90
8105;DHT22;4095;48.942;9.104;2023-01-25T05:44:18;6.20;99.90
8105;DHT22;4095;48.942;9.104;2023-01-25T05:46:44;6.10;99.90
8105;DHT22;4095;48.942;9.104;2023-01-25T05:49:10;6.10;99.90
8105;DHT22;4095;48.942;9.104;2023-01-25T05:51:36;6.10;99.90
8105;DHT22;4095;48.942;9.104;2023-01-25T05:54:03;6.10;99.90
8105;DHT22;4095;48.942;9.104;2023-01-25T05:56:30;6.10;99.70
8105;DHT22;4095;48.942;9.104;2023-01-25T05:58:57;6.10;99.70
8105;DHT22;4095;48.942;9.104;2023-01-25T06:01:24;6.10;99.70
8105;DHT22;4095;48.942;9.104;2023-01-25T06:03:49;6.10;99.70
8105;DHT22;4095;48.942;9.104;2023-01-25T06:06:15;6.10;99.60
8105;DHT22;4095;48.942;9.104;2023-01-25T06:08:41;6.10;99.70
8105;DHT22;4095;48.942;9.104;2023-01-25T06:11:14;6.10;99.60
8105;DHT22;4095;48.942;9.104;2023-01-25T06:13:40;6.10;99.70
8105;DHT22;4095;48.942;9.104;2023-01-25T06:16:06;6.10;99.40
8105;DHT22;4095;48.942;9.104;2023-01-25T06:18:33;6.10;99.40
8105;DHT22;4095;48.942;9.104;2023-01-25T06:21:00;6.10;99.20
8105;DHT22;4095;48.942;9.104;2023-01-25T06:23:26;6.10;99.20
8105;DHT22;4095;48.942;9.104;2023-01-25T06:25:52;6.10;99.60
8105;DHT22;4095;48.942;9.104;2023-01-25T06:28:20;6.10;99.30
8105;DHT22;4095;48.942;9.104;2023-01-25T06:30:46;6.10;99.40
8105;DHT22;4095;48.942;9.104;2023-01-25T06:33:11;6.10;99.60
8105;DHT22;4095;48.942;9.104;2023-01-25T06:35:37;6.10;99.30
8105;DHT22;4095;48.942;9.104;2023-01-25T06:38:05;6.00;99.40
8105;DHT22;4095;48.942;9.104;2023-01-25T06:40:30;6.10;99.40
8105;DHT22;4095;48.942;9.104;2023-01-25T06:43:05;6.10;99.50
8105;DHT22;4095;48.942;9.104;2023-01-25T06:45:30;6.00;99.30
8105;DHT22;4095;48.942;9.104;2023-01-25T06:47:57;6.00;99.50
8105;DHT22;4095;48.942;9.104;2023-01-25T06:50:22;6.00;99.40
8105;DHT22;4095;48.942;9.104;2023-01-25T06:52:55;6.00;99.40
8105;DHT22;4095;48.942;9.104;2023-01-25T06:55:21;6.00;99.40
8105;DHT22;4095;48.942;9.104;2023-01-25T06:57:47;6.00;99.40
8105;DHT22;4095;48.942;9.104;2023-01-25T07:00:14;6.00;99.50
8105;DHT22;4095;48.942;9.104;2023-01-25T07:02:39;6.00;99.50
8105;DHT22;4095;48.942;9.104;2023-01-25T07:05:05;6.00;99.50
8105;DHT22;4095;48.942;9.104;2023-01-25T07:07:31;6.00;99.30
8105;DHT22;4095;48.942;9.104;2023-01-25T07:09:56;6.00;99.20
8105;DHT22;4095;48.942;9.104;2023-01-25T07:12:24;6.00;99.30
8105;DHT22;4095;48.942;9.104;2023-01-25T07:14:50;6.10;99.20
8105;DHT22;4095;48.942;9.104;2023-01-25T07:17:16;6.10;99.20
8105;DHT22;4095;48.942;9.104;2023-01-25T07:19:41;6.00;99.10
8105;DHT22;4095;48.942;9.104;2023-01-25T07:22:07;6.10;99.20
8105;DHT22;4095;48.942;9.104;2023-01-25T07:24:32;6.10;99.20
8105;DHT22;4095;48.942;9.104;2023-01-25T07:26:58;6.10;99.10
8105;DHT22;4095;48.942;9.104;2023-01-25T07:29:24;6.10;99.00
8105;DHT22;4095;48.942;9.104;2023-01-25T07:31:49;6.10;99.00
8105;DHT22;4095;48.942;9.104;2023-01-25T07:34:15;6.10;99.10
8105;DHT22;4095;48.942;9.104;2023-01-25T07:36:41;6.10;99.00
8105;DHT22;4095;48.942;9.104;2023-01-25T07:39:09;6.10;99.20
8105;DHT22;4095;48.942;9.104;2023-01-25T07:41:36;6.10;99.10
8105;DHT22;4095;48.942;9.104;2023-01-25T07:44:02;6.10;99.00
8105;DHT22;4095;48.942;9.104;2023-01-25T07:46:27;6.10;99.10
8105;DHT22;4095;48.942;9.104;2023-01-25T07:48:53;6.10;99.10
8105;DHT22;4095;48.942;9.104;2023-01-25T07:51:20;6.10;99.10
8105;DHT22;4095;48.942;9.104;2023-01-25T07:54:01;6.10;99.10
8105;DHT22;4095;48.942;9.104;2023-01-25T07:56:30;6.10;99.10
8105;DHT22;4095;48.942;9.104;2023-01-25T07:58:58;6.10;99.00
8105;DHT22;4095;48.942;9.104;2023-01-25T08:01:25;6.10;99.00
8105;DHT22;4095;48.942;9.104;2023-01-25T08:03:52;6.10;99.00
8105;DHT22;4095;48.942;9.104;2023-01-25T08:06:23;6.10;98.90
8105;DHT22;4095;48.942;9.104;2023-01-25T08:08:52;6.10;98.90
8105;DHT22;4095;48.942;9.104;2023-01-25T08:11:21;6.10;98.80
8105;DHT22;4095;48.942;9.104;2023-01-25T08:13:48;6.10;99.00
8105;DHT22;4095;48.942;9.104;2023-01-25T08:16:16;6.10;99.00
8105;DHT22;4095;48.942;9.104;2023-01-25T08:18:42;6.10;99.00
8105;DHT22;4095;48.942;9.104;2023-01-25T08:21:08;6.10;99.00
8105;DHT22;4095;48.942;9.104;2023-01-25T08:23:34;6.20;99.00
8105;DHT22;4095;48.942;9.104;2023-01-25T08:26:04;6.20;99.00
8105;DHT22;4095;48.942;9.104;2023-01-25T08:28:30;6.20;99.00
8105;DHT22;4095;48.942;9.104;2023-01-25T08:31:04;6.20;99.00
8105;DHT22;4095;48.942;9.104;2023-01-25T08:33:30;6.20;98.90
8105;DHT22;4095;48.942;9.104;2023-01-25T08:35:56;6.20;98.90
8105;DHT22;4095;48.942;9.104;2023-01-25T08:38:22;6.20;99.00
8105;DHT22;4095;48.942;9.104;2023-01-25T08:40:47;6.20;98.90
8105;DHT22;4095;48.942;9.104;2023-01-25T08:43:13;6.20;98.90
8105;DHT22;4095;48.942;9.104;2023-01-25T08:45:38;6.20;98.80
8105;DHT22;4095;48.942;9.104;2023-01-25T08:48:04;6.20;98.70
8105;DHT22;4095;48.942;9.104;2023-01-25T08:50:29;6.20;98.60
8105;DHT22;4095;48.942;9.104;2023-01-25T08:52:55;6.20;98.60
8105;DHT22;4095;48.942;9.104;2023-01-25T08:55:20;6.20;98.70
8105;DHT22;4095;48.942;9.104;2023-01-25T08:57:46;6.20;98.80
8105;DHT22;4095;48.942;9.104;2023-01-25T09:00:12;6.20;98.70
8105;DHT22;4095;48.942;9.104;2023-01-25T09:02:38;6.20;98.60
8105;DHT22;4095;48.942;9.104;2023-01-25T09:05:04;6.20;98.60
8105;DHT22;4095;48.942;9.104;2023-01-25T09:07:29;6.30;98.60
8105;DHT22;4095;48.942;9.104;2023-01-25T09:09:56;6.20;98.70
8105;DHT22;4095;48.942;9.104;2023-01-25T09:12:22;6.20;98.60
8105;DHT22;4095;48.942;9.104;2023-01-25T09:14:48;6.30;98.70
8105;DHT22;4095;48.942;9.104;2023-01-25T09:17:13;6.30;98.70
8105;DHT22;4095;48.942;9.104;2023-01-25T09:19:39;6.30;98.60
8105;DHT22;4095;48.942;9.104;2023-01-25T09:22:06;6.30;98.80
8105;DHT22;4095;48.942;9.104;2023-01-25T09:24:32;6.30;98.70
8105;DHT22;4095;48.942;9.104;2023-01-25T09:26:59;6.30;98.80
8105;DHT22;4095;48.942;9.104;2023-01-25T09:29:24;6.30;98.60
8105;DHT22;4095;48.942;9.104;2023-01-25T09:31:50;6.30;98.90
8105;DHT22;4095;48.942;9.104;2023-01-25T09:34:16;6.30;98.90
8105;DHT22;4095;48.942;9.104;2023-01-25T09:36:42;6.30;98.80
8105;DHT22;4095;48.942;9.104;2023-01-25T09:39:09;6.40;98.90
8105;DHT22;4095;48.942;9.104;2023-01-25T09:42:03;6.40;98.70
8105;DHT22;4095;48.942;9.104;2023-01-25T09:44:38;6.40;98.70
8105;DHT22;4095;48.942;9.104;2023-01-25T09:47:26;6.40;98.60
8105;DHT22;4095;48.942;9.104;2023-01-25T09:50:04;6.40;98.70
8105;DHT22;4095;48.942;9.104;2023-01-25T09:55:29;6.40;98.50
8105;DHT22;4095;48.942;9.104;2023-01-25T09:57:56;6.40;98.50
8105;DHT22;4095;48.942;9.104;2023-01-25T10:00:48;6.40;98.50
8105;DHT22;4095;48.942;9.104;2023-01-25T10:03:40;6.50;98.50
8105;DHT22;4095;48.942;9.104;2023-01-25T10:06:09;6.50;98.20
8105;DHT22;4095;48.942;9.104;2023-01-25T10:08:59;6.50;98.20
8105;DHT22;4095;48.942;9.104;2023-01-25T10:11:30;6.50;98.00
8105;DHT22;4095;48.942;9.104;2023-01-25T10:13:58;6.40;98.20
8105;DHT22;4095;48.942;9.104;2023-01-25T10:16:25;6.40;98.10
8105;DHT22;4095;48.942;9.104;2023-01-25T10:22:04;6.40;98.00
8105;DHT22;4095;48.942;9.104;2023-01-25T10:30:31;6.50;98.00
8105;DHT22;4095;48.942;9.104;2023-01-25T10:33:09;6.50;97.90
8105;DHT22;4095;48.942;9.104;2023-01-25T10:35:37;6.50;97.90
8105;DHT22;4095;48.942;9.104;2023-01-25T10:38:34;6.50;98.00
8105;DHT22;4095;48.942;9.104;2023-01-25T10:43:52;6.50;97.70
8105;DHT22;4095;48.942;9.104;2023-01-25T10:46:37;6.50;97.70
8105;DHT22;4095;48.942;9.104;2023-01-25T10:51:47;6.50;97.60
8105;DHT22;4095;48.942;9.104;2023-01-25T10:54:14;6.50;97.50
8105;DHT22;4095;48.942;9.104;2023-01-25T10:56:41;6.40;97.50
8105;DHT22;4095;48.942;9.104;2023-01-25T10:59:24;6.40;97.60
8105;DHT22;4095;48.942;9.104;2023-01-25T11:01:51;6.40;97.70
8105;DHT22;4095;48.942;9.104;2023-01-25T11:04:32;6.40;97.50
8105;DHT22;4095;48.942;9.104;2023-01-25T11:06:59;6.40;97.50
8105;DHT22;4095;48.942;9.104;2023-01-25T11:09:32;6.30;97.40
8105;DHT22;4095;48.942;9.104;2023-01-25T11:12:18;6.30;97.30
8105;DHT22;4095;48.942;9.104;2023-01-25T11:14:45;6.20;97.30
8105;DHT22;4095;48.942;9.104;2023-01-25T11:17:40;6.20;97.60
8105;DHT22;4095;48.942;9.104;2023-01-25T11:20:18;6.30;97.50
8105;DHT22;4095;48.942;9.104;2023-01-25T11:22:53;6.30;97.50
8105;DHT22;4095;48.942;9.104;2023-01-25T11:27:49;6.30;97.50
8105;DHT22;4095;48.942;9.104;2023-01-25T11:30:16;6.30;97.30
8105;DHT22;4095;48.942;9.104;2023-01-25T11:32:45;6.30;97.50
8105;DHT22;4095;48.942;9.104;2023-01-25T11:35:16;6.40;97.50
8105;DHT22;4095;48.942;9.104;2023-01-25T11:40:32;6.40;97.50
8105;DHT22;4095;48.942;9.104;2023-01-25T11:59:49;6.30;97.20
8105;DHT22;4095;48.942;9.104;2023-01-25T12:14:06;6.40;97.40
8105;DHT22;4095;48.942;9.104;2023-01-25T12:21:59;6.40;97.30
8105;DHT22;4095;48.942;9.104;2023-01-25T12:28:09;6.30;97.30
8105;DHT22;4095;48.942;9.104;2023-01-25T12:33:35;6.30;97.30
8105;DHT22;4095;48.942;9.104;2023-01-25T12:38:48;6.30;97.30
8105;DHT22;4095;48.942;9.104;2023-01-25T12:44:51;6.30;97.50
8105;DHT22;4095;48.942;9.104;2023-01-25T12:47:14;6.30;97.60
8105;DHT22;4095;48.942;9.104;2023-01-25T12:50:03;6.30;97.50
8105;DHT22;4095;48.942;9.104;2023-01-25T12:52:36;6.30;97.30
8105;DHT22;4095;48.942;9.104;2023-01-25T12:55:11;6.30;97.40
8105;DHT22;4095;48.942;9.104;2023-01-25T12:57:43;6.30;96.90
8105;DHT22;4095;48.942;9.104;2023-01-25T13:10:52;6.30;97.40
8105;DHT22;4095;48.942;9.104;2023-01-25T13:13:24;6.40;97.50
8105;DHT22;4095;48.942;9.104;2023-01-25T13:15:50;6.40;97.20
8105;DHT22;4095;48.942;9.104;2023-01-25T13:20:53;6.40;97.10
8105;DHT22;4095;48.942;9.104;2023-01-25T13:23:30;6.40;97.20
8105;DHT22;4095;48.942;9.104;2023-01-25T13:28:54;6.30;97.50
8105;DHT22;4095;48.942;9.104;2023-01-25T13:36:55;6.20;97.40
8105;DHT22;4095;48.942;9.104;2023-01-25T13:42:35;6.20;97.20
8105;DHT22;4095;48.942;9.104;2023-01-25T13:45:13;6.20;97.00
8105;DHT22;4095;48.942;9.104;2023-01-25T13:47:42;6.20;97.30
8105;DHT22;4095;48.942;9.104;2023-01-25T13:55:20;6.10;97.30
8105;DHT22;4095;48.942;9.104;2023-01-25T13:57:46;6.10;97.60
8105;DHT22;4095;48.942;9.104;2023-01-25T14:00:15;6.10;97.50
8105;DHT22;4095;48.942;9.104;2023-01-25T14:02:53;6.10;97.50
8105;DHT22;4095;48.942;9.104;2023-01-25T14:05:23;6.10;97.20
8105;DHT22;4095;48.942;9.104;2023-01-25T14:07:52;6.00;97.40
8105;DHT22;4095;48.942;9.104;2023-01-25T14:10:21;6.10;97.70
8105;DHT22;4095;48.942;9.104;2023-01-25T14:12:49;6.10;97.70
8105;DHT22;4095;48.942;9.104;2023-01-25T14:17:42;6.10;97.70
8105;DHT22;4095;48.942;9.104;2023-01-25T14:20:25;6.10;97.60
8105;DHT22;4095;48.942;9.104;2023-01-25T14:22:51;6.10;97.60
8105;DHT22;4095;48.942;9.104;2023-01-25T14:25:21;6.10;97.70
8105;DHT22;4095;48.942;9.104;2023-01-25T14:27:52;6.20;97.80
8105;DHT22;4095;48.942;9.104;2023-01-25T14:30:22;6.10;97.70
8105;DHT22;4095;48.942;9.104;2023-01-25T14:32:50;6.10;97.70
8105;DHT22;4095;48.942;9.104;2023-01-25T14:35:42;6.10;97.70
8105;DHT22;4095;48.942;9.104;2023-01-25T14:38:28;6.10;97.60
8105;DHT22;4095;48.942;9.104;2023-01-25T14:40:57;6.10;97.90
8105;DHT22;4095;48.942;9.104;2023-01-25T14:43:24;6.10;97.90
8105;DHT22;4095;48.942;9.104;2023-01-25T14:45:50;6.20;98.00
8105;DHT22;4095;48.942;9.104;2023-01-25T14:48:35;6.20;97.90
8105;DHT22;4095;48.942;9.104;2023-01-25T14:53:40;6.10;98.00
8105;DHT22;4095;48.942;9.104;2023-01-25T14:56:22;6.10;98.00
8105;DHT22;4095;48.942;9.104;2023-01-25T14:58:50;6.10;98.00
8105;DHT22;4095;48.942;9.104;2023-01-25T15:01:25;6.10;98.10
8105;DHT22;4095;48.942;9.104;2023-01-25T15:03:52;6.20;98.30
8105;DHT22;4095;48.942;9.104;2023-01-25T15:06:17;6.20;98.00
8105;DHT22;4095;48.942;9.104;2023-01-25T15:08:43;6.10;97.60
8105;DHT22;4095;48.942;9.104;2023-01-25T15:11:36;6.10;97.90
8105;DHT22;4095;48.942;9.104;2023-01-25T15:14:17;6.10;98.10
8105;DHT22;4095;48.942;9.104;2023-01-25T15:16:43;6.10;98.20
8105;DHT22;4095;48.942;9.104;2023-01-25T15:19:22;6.10;98.30
8105;DHT22;4095;48.942;9.104;2023-01-25T15:21:48;6.10;98.20
8105;DHT22;4095;48.942;9.104;2023-01-25T15:24:14;6.00;98.20
8105;DHT22;4095;48.942;9.104;2023-01-25T15:26:39;6.00;97.90
8105;DHT22;4095;48.942;9.104;2023-01-25T15:29:13;6.00;98.10
8105;DHT22;4095;48.942;9.104;2023-01-25T15:31:40;5.90;98.00
8105;DHT22;4095;48.942;9.104;2023-01-25T15:34:19;5.80;98.10
8105;DHT22;4095;48.942;9.104;2023-01-25T15:36:46;5.80;98.20
8105;DHT22;4095;48.942;9.104;2023-01-25T15:39:13;5.80;98.40
8105;DHT22;4095;48.942;9.104;2023-01-25T15:41:40;5.90;98.50
8105;DHT22;4095;48.942;9.104;2023-01-25T15:44:06;5.90;98.10
8105;DHT22;4095;48.942;9.104;2023-01-25T15:46:32;5.90;98.00
8105;DHT22;4095;48.942;9.104;2023-01-25T15:48:58;5.90;98.20
8105;DHT22;4095;48.942;9.104;2023-01-25T15:51:24;5.90;98.30
8105;DHT22;4095;48.942;9.104;2023-01-25T15:53:50;5.90;98.40
8105;DHT22;4095;48.942;9.104;2023-01-25T15:56:20;5.90;98.40
8105;DHT22;4095;48.942;9.104;2023-01-25T15:58:52;5.90;98.00
8105;DHT22;4095;48.942;9.104;2023-01-25T16:01:18;5.90;98.20
8105;DHT22;4095;48.942;9.104;2023-01-25T16:03:44;5.90;98.10
8105;DHT22;4095;48.942;9.104;2023-01-25T16:06:20;5.90;98.20
8105;DHT22;4095;48.942;9.104;2023-01-25T16:08:48;5.90;98.20
8105;DHT22;4095;48.942;9.104;2023-01-25T16:11:13;5.90;98.50
8105;DHT22;4095;48.942;9.104;2023-01-25T16:13:39;5.90;98.50
8105;DHT22;4095;48.942;9.104;2023-01-25T16:16:16;5.90;98.50
8105;DHT22;4095;48.942;9.104;2023-01-25T16:18:42;5.90;98.50
8105;DHT22;4095;48.942;9.104;2023-01-25T16:21:10;5.90;98.50
8105;DHT22;4095;48.942;9.104;2023-01-25T16:23:35;6.00;98.50
8105;DHT22;4095;48.942;9.104;2023-01-25T16:26:01;5.90;98.30
8105;DHT22;4095;48.942;9.104;2023-01-25T16:28:26;5.90;98.40
8105;DHT22;4095;48.942;9.104;2023-01-25T16:30:52;6.00;98.40
8105;DHT22;4095;48.942;9.104;2023-01-25T16:33:17;6.00;98.50
8105;DHT22;4095;48.942;9.104;2023-01-25T16:36:03;5.90;98.20
8105;DHT22;4095;48.942;9.104;2023-01-25T16:38:33;5.90;98.30
8105;DHT22;4095;48.942;9.104;2023-01-25T16:40:59;6.00;98.40
8105;DHT22;4095;48.942;9.104;2023-01-25T16:43:25;6.00;98.40
8105;DHT22;4095;48.942;9.104;2023-01-25T16:45:55;6.00;98.50
8105;DHT22;4095;48.942;9.104;2023-01-25T16:48:22;6.00;98.30
8105;DHT22;4095;48.942;9.104;2023-01-25T16:50:51;6.00;98.30
8105;DHT22;4095;48.942;9.104;2023-01-25T16:53:16;6.00;98.40
8105;DHT22;4095;48.942;9.104;2023-01-25T16:55:42;6.00;98.40
8105;DHT22;4095;48.942;9.104;2023-01-25T16:58:08;5.90;98.30
8105;DHT22;4095;48.942;9.104;2023-01-25T17:00:33;5.90;98.50
8105;DHT22;4095;48.942;9.104;2023-01-25T17:02:59;5.90;98.50
8105;DHT22;4095;48.942;9.104;2023-01-25T17:05:26;5.90;98.60
8105;DHT22;4095;48.942;9.104;2023-01-25T17:07:55;5.90;98.50
8105;DHT22;4095;48.942;9.104;2023-01-25T17:10:21;5.90;98.50
8105;DHT22;4095;48.942;9.104;2023-01-25T17:12:46;5.90;98.50
8105;DHT22;4095;48.942;9.104;2023-01-25T17:15:12;5.90;98.60
8105;DHT22;4095;48.942;9.104;2023-01-25T17:17:38;5.90;98.60
8105;DHT22;4095;48.942;9.104;2023-01-25T17:20:03;5.90;98.70
8105;DHT22;4095;48.942;9.104;2023-01-25T17:22:29;5.80;98.60
8105;DHT22;4095;48.942;9.104;2023-01-25T17:25:02;5.80;98.60
8105;DHT22;4095;48.942;9.104;2023-01-25T17:27:27;5.80;98.60
8105;DHT22;4095;48.942;9.104;2023-01-25T17:29:53;5.80;98.80
8105;DHT22;4095;48.942;9.104;2023-01-25T17:32:18;5.80;98.60
8105;DHT22;4095;48.942;9.104;2023-01-25T17:34:44;5.80;98.50
8105;DHT22;4095;48.942;9.104;2023-01-25T17:37:10;5.90;98.50
8105;DHT22;4095;48.942;9.104;2023-01-25T17:39:35;5.80;98.40
8105;DHT22;4095;48.942;9.104;2023-01-25T17:42:01;5.80;98.30
8105;DHT22;4095;48.942;9.104;2023-01-25T17:44:26;5.80;98.40
8105;DHT22;4095;48.942;9.104;2023-01-25T17:46:52;5.80;98.40
8105;DHT22;4095;48.942;9.104;2023-01-25T17:49:18;5.80;98.40
8105;DHT22;4095;48.942;9.104;2023-01-25T17:51:44;5.80;98.50
8105;DHT22;4095;48.942;9.104;2023-01-25T17:54:10;5.70;98.50
8105;DHT22;4095;48.942;9.104;2023-01-25T17:56:37;5.80;98.40
8105;DHT22;4095;48.942;9.104;2023-01-25T17:59:02;5.80;98.70
8105;DHT22;4095;48.942;9.104;2023-01-25T18:01:29;5.80;98.40
8105;DHT22;4095;48.942;9.104;2023-01-25T18:07:25;5.70;98.20
8105;DHT22;4095;48.942;9.104;2023-01-25T18:09:51;5.60;98.20
8105;DHT22;4095;48.942;9.104;2023-01-25T18:12:16;5.60;98.50
8105;DHT22;4095;48.942;9.104;2023-01-25T18:14:43;5.70;98.80
8105;DHT22;4095;48.942;9.104;2023-01-25T18:17:10;5.70;98.60
8105;DHT22;4095;48.942;9.104;2023-01-25T18:19:36;5.70;98.70
8105;DHT22;4095;48.942;9.104;2023-01-25T18:22:02;5.60;98.90
8105;DHT22;4095;48.942;9.104;2023-01-25T18:24:34;5.70;98.80